createdAt,value
2023-01-19T00:00:04.340Z,55.56
2023-01-19T00:01:04.265Z,55.75
2023-01-19T00:02:04.330Z,55.78
2023-01-19T00:04:04.289Z,55.88
2023-01-19T00:05:04.294Z,55.88
2023-01-19T00:06:04.383Z,55.98
2023-01-19T00:07:04.322Z,55.77
2023-01-19T00:08:04.319Z,55.77
2023-01-19T00:09:04.290Z,55.90
2023-01-19T00:10:04.364Z,55.54
2023-01-19T00:11:04.319Z,55.20
2023-01-19T00:12:04.321Z,55.35
2023-01-19T00:13:04.371Z,55.35
2023-01-19T00:14:04.348Z,55.14
2023-01-19T00:15:04.336Z,55.33
2023-01-19T00:16:04.322Z,55.33
2023-01-19T00:18:04.413Z,55.49
2023-01-19T00:20:04.375Z,55.32
2023-01-19T00:21:04.298Z,55.37
2023-01-19T00:23:04.320Z,55.32
2023-01-19T00:25:04.318Z,55.15
2023-01-19T00:26:04.307Z,55.01
2023-01-19T00:27:04.395Z,55.29
2023-01-19T00:29:04.368Z,55.19
2023-01-19T00:31:04.470Z,54.84
2023-01-19T00:32:04.346Z,55.04
2023-01-19T00:33:04.359Z,55.04
2023-01-19T00:34:04.333Z,54.73
2023-01-19T00:35:04.372Z,54.73
2023-01-19T00:36:04.381Z,54.64
2023-01-19T00:37:04.383Z,54.64
2023-01-19T00:39:04.397Z,54.98
2023-01-19T00:41:04.385Z,55.11
2023-01-19T00:42:04.405Z,55.11
2023-01-19T00:43:04.424Z,54.99
2023-01-19T00:45:04.377Z,55.07
2023-01-19T00:47:04.392Z,55.17
2023-01-19T00:49:04.393Z,55.30
2023-01-19T00:50:04.370Z,55.31
2023-01-19T00:51:04.384Z,55.30
2023-01-19T00:52:04.449Z,55.38
2023-01-19T00:54:04.387Z,55.35
2023-01-19T00:57:04.399Z,55.27
2023-01-19T00:59:04.432Z,55.33
2023-01-19T01:00:04.472Z,55.36
2023-01-19T01:01:04.506Z,55.45
2023-01-19T01:02:04.641Z,55.45
2023-01-19T01:03:04.961Z,55.42
2023-01-19T01:04:04.402Z,55.42
2023-01-19T01:06:04.443Z,55.65
2023-01-19T01:07:04.407Z,55.65
2023-01-19T01:09:04.418Z,55.66
2023-01-19T01:10:04.422Z,55.85
2023-01-19T01:12:04.468Z,55.51
2023-01-19T01:13:20.012Z,55.32
2023-01-19T01:14:04.471Z,55.45
2023-01-19T01:15:04.476Z,55.45
2023-01-19T01:16:04.584Z,55.12
2023-01-19T01:18:04.491Z,55.06
2023-01-19T01:19:04.491Z,55.06
2023-01-19T01:21:04.517Z,54.78
2023-01-19T01:22:04.509Z,54.89
2023-01-19T01:23:04.776Z,54.32
2023-01-19T01:24:04.494Z,54.32
2023-01-19T01:25:04.472Z,54.46
2023-01-19T01:26:04.458Z,54.46
2023-01-19T01:27:04.481Z,54.39
2023-01-19T01:28:04.500Z,54.39
2023-01-19T01:30:04.604Z,54.31
2023-01-19T01:31:04.507Z,54.03
2023-01-19T01:33:04.474Z,53.92
2023-01-19T01:34:04.545Z,53.89
2023-01-19T01:35:04.494Z,53.89
2023-01-19T01:36:04.533Z,54.07
2023-01-19T01:37:04.486Z,53.88
2023-01-19T01:39:04.514Z,53.91
2023-01-19T01:40:04.527Z,54.06
2023-01-19T01:41:04.536Z,54.00
2023-01-19T01:42:04.579Z,54.14
2023-01-19T01:43:04.520Z,54.14
2023-01-19T01:44:04.520Z,54.25
2023-01-19T01:45:04.501Z,54.34
2023-01-19T01:46:04.591Z,54.45
2023-01-19T01:47:04.572Z,54.57
2023-01-19T01:48:04.515Z,54.57
2023-01-19T01:49:04.531Z,54.55
2023-01-19T01:50:04.543Z,54.78
2023-01-19T01:51:04.548Z,54.95
2023-01-19T01:53:06.458Z,55.06
2023-01-19T01:54:04.557Z,55.06
2023-01-19T01:55:04.566Z,54.84
2023-01-19T01:56:04.546Z,55.14
2023-01-19T01:57:04.553Z,55.14
2023-01-19T01:58:04.572Z,55.49
2023-01-19T01:59:04.540Z,55.49
2023-01-19T02:00:04.530Z,55.58
2023-01-19T02:01:04.695Z,55.81
2023-01-19T02:02:04.671Z,55.66
2023-01-19T02:03:04.772Z,55.66
2023-01-19T02:06:04.555Z,55.44
2023-01-19T02:08:04.604Z,55.44
2023-01-19T02:09:04.596Z,55.44
2023-01-19T02:10:04.574Z,55.36
2023-01-19T02:11:04.632Z,55.50
2023-01-19T02:15:04.590Z,55.64
2023-01-19T02:16:04.643Z,55.59
2023-01-19T02:17:04.623Z,55.51
2023-01-19T02:18:04.625Z,55.48
2023-01-19T02:19:04.737Z,55.48
2023-01-19T02:20:04.651Z,55.59
2023-01-19T02:21:04.647Z,55.59
2023-01-19T02:22:04.618Z,55.48
2023-01-19T02:23:04.624Z,55.66
2023-01-19T02:24:04.637Z,55.71
2023-01-19T02:26:04.595Z,55.72
2023-01-19T02:27:04.612Z,55.64
2023-01-19T02:28:04.646Z,55.75
2023-01-19T02:30:04.590Z,55.69
2023-01-19T02:31:04.674Z,55.65
2023-01-19T02:32:04.741Z,55.71
2023-01-19T02:33:04.670Z,55.76
2023-01-19T02:34:04.669Z,55.91
2023-01-19T02:35:04.619Z,55.91
2023-01-19T02:36:04.666Z,55.87
2023-01-19T02:38:04.662Z,55.87
2023-01-19T02:39:04.621Z,55.87
2023-01-19T02:40:04.636Z,55.91
2023-01-19T02:41:04.664Z,55.93
2023-01-19T02:42:04.644Z,56.04
2023-01-19T02:43:04.675Z,55.93
2023-01-19T02:45:04.729Z,55.79
2023-01-19T02:46:04.710Z,55.79
2023-01-19T02:47:04.648Z,55.70
2023-01-19T02:48:04.686Z,55.64
2023-01-19T02:49:04.691Z,55.64
2023-01-19T02:50:04.686Z,55.67
2023-01-19T02:52:04.682Z,55.83
2023-01-19T02:53:04.659Z,55.71
2023-01-19T02:54:04.719Z,55.82
2023-01-19T02:56:04.692Z,55.69
2023-01-19T02:57:04.720Z,55.69
2023-01-19T02:58:04.762Z,55.78
2023-01-19T02:59:04.685Z,55.78
2023-01-19T03:00:04.717Z,55.63
2023-01-19T03:01:04.821Z,55.63
2023-01-19T03:05:05.194Z,55.42
2023-01-19T03:06:04.699Z,55.55
2023-01-19T03:07:04.729Z,55.43
2023-01-19T03:08:04.726Z,55.18
2023-01-19T03:09:04.679Z,55.18
2023-01-19T03:10:04.765Z,55.04
2023-01-19T03:14:04.770Z,55.23
2023-01-19T03:15:04.751Z,55.23
2023-01-19T03:17:04.763Z,55.12
2023-01-19T03:18:04.751Z,55.12
2023-01-19T03:20:04.827Z,54.99
2023-01-19T03:21:04.741Z,55.06
2023-01-19T03:22:04.780Z,55.00
2023-01-19T03:23:04.727Z,55.00
2023-01-19T03:25:04.799Z,55.23
2023-01-19T03:26:04.763Z,55.23
2023-01-19T03:27:04.824Z,55.26
2023-01-19T03:28:04.776Z,55.22
2023-01-19T03:29:04.749Z,55.17
2023-01-19T03:30:04.742Z,55.17
2023-01-19T03:31:04.886Z,55.42
2023-01-19T03:32:04.788Z,55.20
2023-01-19T03:34:04.768Z,55.35
2023-01-19T03:36:04.817Z,55.28
2023-01-19T03:37:04.762Z,55.18
2023-01-19T03:39:04.778Z,55.37
2023-01-19T03:40:04.832Z,55.38
2023-01-19T03:41:04.770Z,55.38
2023-01-19T03:42:04.797Z,55.30
2023-01-19T03:43:04.812Z,55.49
2023-01-19T03:44:04.796Z,55.60
2023-01-19T03:45:04.784Z,55.60
2023-01-19T03:46:04.832Z,55.60
2023-01-19T03:47:04.836Z,55.24
2023-01-19T03:48:04.784Z,55.24
2023-01-19T03:49:04.793Z,55.18
2023-01-19T03:50:04.831Z,55.10
2023-01-19T03:52:04.815Z,54.95
2023-01-19T03:53:04.859Z,54.92
2023-01-19T03:54:04.837Z,54.78
2023-01-19T03:55:04.835Z,55.21
2023-01-19T03:56:04.815Z,55.21
2023-01-19T03:57:04.824Z,55.07
2023-01-19T03:58:04.799Z,54.90
2023-01-19T03:59:04.873Z,54.91
2023-01-19T04:00:04.814Z,54.91
2023-01-19T04:01:04.864Z,55.04
2023-01-19T04:02:04.832Z,55.26
2023-01-19T04:03:05.177Z,55.13
2023-01-19T04:04:04.871Z,55.09
2023-01-19T04:05:04.834Z,55.09
2023-01-19T04:06:04.832Z,55.21
2023-01-19T04:07:04.872Z,55.00
2023-01-19T04:08:04.873Z,54.71
2023-01-19T04:09:04.878Z,54.71
2023-01-19T04:10:04.884Z,54.87
2023-01-19T04:11:04.863Z,54.95
2023-01-19T04:13:04.887Z,54.79
2023-01-19T04:15:04.875Z,55.12
2023-01-19T04:16:04.984Z,54.95
2023-01-19T04:17:04.919Z,55.02
2023-01-19T04:18:04.898Z,55.02
2023-01-19T04:19:04.904Z,54.95
2023-01-19T04:20:04.874Z,54.95
2023-01-19T04:21:04.891Z,54.92
2023-01-19T04:22:04.899Z,54.92
2023-01-19T04:23:04.871Z,54.94
2023-01-19T04:24:04.956Z,54.98
2023-01-19T04:25:04.929Z,55.00
2023-01-19T04:28:04.902Z,54.95
2023-01-19T04:29:04.916Z,54.95
2023-01-19T04:30:04.888Z,55.06
2023-01-19T04:31:04.926Z,55.07
2023-01-19T04:32:04.939Z,55.05
2023-01-19T04:33:04.905Z,55.05
2023-01-19T04:34:04.887Z,55.11
2023-01-19T04:35:04.901Z,55.38
2023-01-19T04:36:04.906Z,55.38
2023-01-19T04:37:04.987Z,55.44
2023-01-19T04:39:04.933Z,55.41
2023-01-19T04:41:04.946Z,55.70
2023-01-19T04:42:04.915Z,55.61
2023-01-19T04:43:04.959Z,55.55
2023-01-19T04:44:04.943Z,55.66
2023-01-19T04:45:04.968Z,55.55
2023-01-19T04:46:04.963Z,55.62
2023-01-19T04:47:04.964Z,55.75
2023-01-19T04:48:04.945Z,55.95
2023-01-19T04:50:04.990Z,56.05
2023-01-19T04:51:05.005Z,56.08
2023-01-19T04:53:05.010Z,56.18
2023-01-19T04:55:04.992Z,56.27
2023-01-19T04:56:04.964Z,56.27
2023-01-19T04:57:04.955Z,56.28
2023-01-19T04:58:05.046Z,55.85
2023-01-19T05:00:05.003Z,55.92
2023-01-19T05:01:05.036Z,56.00
2023-01-19T05:02:04.997Z,56.00
2023-01-19T05:03:05.490Z,56.11
2023-01-19T05:04:04.980Z,56.54
2023-01-19T05:05:05.031Z,56.66
2023-01-19T05:06:04.997Z,56.56
2023-01-19T05:07:04.989Z,56.56
2023-01-19T05:08:05.010Z,56.54
2023-01-19T05:09:04.991Z,56.54
2023-01-19T05:10:04.985Z,56.51
2023-01-19T05:11:05.043Z,56.52
2023-01-19T05:12:05.002Z,56.97
2023-01-19T05:13:05.022Z,56.97
2023-01-19T05:14:05.064Z,57.18
2023-01-19T05:15:05.011Z,57.18
2023-01-19T05:16:05.062Z,57.32
2023-01-19T05:17:05.056Z,57.08
2023-01-19T05:18:04.993Z,57.08
2023-01-19T05:19:05.009Z,56.80
2023-01-19T05:20:05.133Z,56.64
2023-01-19T05:22:05.072Z,56.22
2023-01-19T05:23:05.051Z,56.22
2023-01-19T05:24:05.028Z,56.04
2023-01-19T05:25:05.055Z,56.10
2023-01-19T05:26:05.040Z,56.10
2023-01-19T05:27:05.049Z,57.04
2023-01-19T05:28:05.074Z,57.22
2023-01-19T05:29:05.050Z,57.41
2023-01-19T05:30:05.064Z,57.56
2023-01-19T05:31:05.248Z,57.62
2023-01-19T05:32:05.106Z,57.62
2023-01-19T05:33:05.077Z,57.73
2023-01-19T05:34:05.080Z,58.11
2023-01-19T05:35:05.092Z,58.25
2023-01-19T05:36:05.103Z,58.25
2023-01-19T05:37:05.083Z,58.06
2023-01-19T05:38:05.089Z,58.06
2023-01-19T05:39:05.044Z,58.12
2023-01-19T05:40:05.055Z,58.06
2023-01-19T05:41:05.063Z,57.88
2023-01-19T05:42:05.081Z,57.77
2023-01-19T05:43:05.571Z,57.69
2023-01-19T05:44:05.094Z,57.69
2023-01-19T05:45:05.065Z,57.87
2023-01-19T05:46:05.097Z,57.84
2023-01-19T05:47:05.099Z,57.84
2023-01-19T05:48:05.100Z,57.55
2023-01-19T05:49:05.200Z,57.48
2023-01-19T05:50:05.148Z,57.48
2023-01-19T05:51:05.150Z,57.29
2023-01-19T05:52:05.141Z,57.35
2023-01-19T05:53:05.147Z,57.34
2023-01-19T05:54:05.130Z,57.34
2023-01-19T05:55:05.091Z,57.04
2023-01-19T05:56:05.150Z,57.06
2023-01-19T05:57:05.144Z,57.06
2023-01-19T05:58:05.087Z,56.58
2023-01-19T05:59:05.101Z,56.58
2023-01-19T06:00:05.152Z,56.82
2023-01-19T06:01:05.177Z,56.82
2023-01-19T06:03:05.377Z,56.86
2023-01-19T06:04:05.150Z,56.69
2023-01-19T06:05:05.168Z,56.69
2023-01-19T06:06:05.154Z,56.69
2023-01-19T06:07:05.157Z,57.12
2023-01-19T06:08:05.122Z,57.12
2023-01-19T06:10:05.177Z,57.13
2023-01-19T06:11:05.161Z,57.25
2023-01-19T06:12:05.167Z,57.29
2023-01-19T06:13:05.166Z,57.29
2023-01-19T06:14:05.169Z,57.81
2023-01-19T06:15:05.217Z,57.60
2023-01-19T06:16:05.262Z,57.99
2023-01-19T06:17:05.168Z,58.18
2023-01-19T06:18:05.190Z,58.18
2023-01-19T06:19:05.179Z,57.82
2023-01-19T06:20:05.194Z,57.24
2023-01-19T06:21:05.210Z,57.46
2023-01-19T06:22:05.239Z,56.78
2023-01-19T06:23:05.209Z,56.80
2023-01-19T06:24:05.191Z,56.80
2023-01-19T06:25:05.195Z,56.44
2023-01-19T06:26:05.233Z,56.95
2023-01-19T06:27:05.160Z,56.95
2023-01-19T06:28:05.174Z,57.29
2023-01-19T06:29:05.213Z,57.64
2023-01-19T06:30:05.248Z,57.69
2023-01-19T06:31:05.266Z,57.69
2023-01-19T06:32:05.253Z,57.71
2023-01-19T06:33:05.192Z,56.93
2023-01-19T06:34:05.222Z,56.93
2023-01-19T06:35:05.197Z,56.10
2023-01-19T06:36:05.203Z,55.95
2023-01-19T06:37:05.212Z,55.91
2023-01-19T06:38:05.220Z,56.26
2023-01-19T06:39:05.227Z,56.08
2023-01-19T06:40:05.242Z,56.08
2023-01-19T06:41:05.247Z,55.87
2023-01-19T06:42:05.234Z,55.76
2023-01-19T06:43:05.241Z,55.78
2023-01-19T06:44:05.227Z,55.78
2023-01-19T06:45:05.214Z,56.00
2023-01-19T06:46:05.276Z,55.96
2023-01-19T06:47:15.594Z,55.96
2023-01-19T06:48:05.256Z,55.75
2023-01-19T06:49:05.264Z,55.75
2023-01-19T06:50:05.251Z,55.61
2023-01-19T06:51:05.263Z,55.44
2023-01-19T06:52:05.222Z,55.44
2023-01-19T06:53:05.225Z,55.30
2023-01-19T06:56:06.194Z,54.94
2023-01-19T06:57:05.283Z,54.94
2023-01-19T06:58:05.282Z,54.44
2023-01-19T06:59:05.277Z,54.54
2023-01-19T07:00:05.271Z,54.58
2023-01-19T07:01:05.462Z,54.69
2023-01-19T07:02:26.270Z,54.69
2023-01-19T07:03:05.464Z,54.58
2023-01-19T07:04:05.276Z,54.19
2023-01-19T07:05:05.242Z,54.19
2023-01-19T07:06:05.290Z,53.97
2023-01-19T07:07:05.337Z,53.75
2023-01-19T07:08:05.315Z,53.75
2023-01-19T07:09:05.293Z,53.37
2023-01-19T07:11:23.584Z,53.41
2023-01-19T07:12:05.324Z,53.74
2023-01-19T07:13:05.265Z,53.74
2023-01-19T07:15:05.339Z,53.83
2023-01-19T07:16:06.660Z,53.88
2023-01-19T07:17:05.288Z,53.89
2023-01-19T07:18:05.349Z,53.89
2023-01-19T07:19:05.306Z,54.06
2023-01-19T07:20:05.358Z,54.01
2023-01-19T07:21:05.349Z,54.01
2023-01-19T07:22:05.320Z,53.80
2023-01-19T07:23:05.575Z,53.78
2023-01-19T07:24:05.296Z,53.53
2023-01-19T07:25:05.312Z,53.32
2023-01-19T07:26:05.306Z,53.32
2023-01-19T07:27:05.334Z,52.97
2023-01-19T07:28:05.372Z,52.97
2023-01-19T07:29:05.365Z,52.97
2023-01-19T07:30:05.299Z,53.28
2023-01-19T07:31:05.467Z,54.13
2023-01-19T07:32:05.321Z,54.13
2023-01-19T07:33:05.353Z,54.09
2023-01-19T07:34:05.332Z,53.77
2023-01-19T07:35:05.384Z,53.77
2023-01-19T07:37:05.332Z,53.42
2023-01-19T07:38:05.373Z,53.19
2023-01-19T07:39:05.373Z,53.42
2023-01-19T07:40:05.372Z,53.42
2023-01-19T07:41:05.452Z,53.36
2023-01-19T07:42:05.387Z,53.40
2023-01-19T07:43:05.387Z,53.23
2023-01-19T07:44:05.424Z,53.23
2023-01-19T07:45:05.340Z,53.13
2023-01-19T07:46:05.519Z,53.49
2023-01-19T07:47:05.395Z,53.36
2023-01-19T07:48:05.394Z,52.73
2023-01-19T07:49:05.382Z,52.59
2023-01-19T07:50:05.384Z,52.59
2023-01-19T07:51:05.560Z,52.61
2023-01-19T07:52:05.387Z,52.70
2023-01-19T07:53:05.449Z,52.82
2023-01-19T07:54:05.366Z,52.93
2023-01-19T07:55:05.412Z,52.93
2023-01-19T07:56:05.444Z,52.79
2023-01-19T07:57:05.464Z,51.93
2023-01-19T07:58:05.415Z,51.93
2023-01-19T07:59:05.407Z,52.45
2023-01-19T08:00:05.387Z,52.20
2023-01-19T08:01:05.562Z,51.97
2023-01-19T08:02:05.619Z,52.21
2023-01-19T08:03:05.528Z,51.92
2023-01-19T08:04:05.432Z,51.92
2023-01-19T08:05:05.458Z,51.48
2023-01-19T08:06:05.421Z,51.48
2023-01-19T08:07:05.448Z,51.43
2023-01-19T08:09:05.767Z,51.71
2023-01-19T08:10:05.539Z,51.93
2023-01-19T08:12:05.453Z,52.36
2023-01-19T08:13:05.464Z,52.32
2023-01-19T08:14:07.757Z,52.24
2023-01-19T08:15:05.968Z,52.24
2023-01-19T08:16:05.573Z,52.05
2023-01-19T08:17:05.488Z,51.74
2023-01-19T08:18:05.474Z,52.45
2023-01-19T08:19:05.477Z,52.61
2023-01-19T08:20:05.457Z,52.61
2023-01-19T08:21:05.504Z,52.98
2023-01-19T08:22:05.472Z,52.36
2023-01-19T08:23:05.506Z,51.74
2023-01-19T08:24:05.617Z,51.22
2023-01-19T08:25:05.473Z,50.68
2023-01-19T08:26:05.505Z,50.67
2023-01-19T08:27:06.035Z,50.67
2023-01-19T08:28:05.484Z,50.66
2023-01-19T08:29:05.472Z,50.25
2023-01-19T08:30:05.504Z,50.46
2023-01-19T08:31:19.205Z,50.54
2023-01-19T08:33:05.485Z,50.02
2023-01-19T08:34:05.472Z,50.02
2023-01-19T08:35:05.458Z,50.20
2023-01-19T08:36:05.471Z,50.66
2023-01-19T08:37:05.482Z,50.30
2023-01-19T08:38:05.521Z,50.23
2023-01-19T08:39:05.581Z,50.04
2023-01-19T08:40:05.481Z,50.06
2023-01-19T08:41:05.531Z,49.81
2023-01-19T08:42:05.495Z,49.81
2023-01-19T08:43:05.516Z,49.61
2023-01-19T08:44:05.544Z,49.29
2023-01-19T08:45:05.751Z,49.19
2023-01-19T08:46:05.516Z,49.19
2023-01-19T08:47:05.584Z,48.74
2023-01-19T08:48:05.532Z,48.86
2023-01-19T08:49:05.510Z,48.58
2023-01-19T08:50:05.499Z,48.49
2023-01-19T08:51:05.784Z,48.49
2023-01-19T08:52:05.531Z,48.52
2023-01-19T08:53:05.494Z,48.52
2023-01-19T08:54:05.552Z,48.35
2023-01-19T08:55:05.515Z,48.25
2023-01-19T08:56:05.548Z,48.25
2023-01-19T08:57:05.581Z,47.98
2023-01-19T08:58:05.562Z,47.13
2023-01-19T08:59:09.814Z,47.13
2023-01-19T09:00:05.573Z,46.77
2023-01-19T09:01:05.571Z,46.45
2023-01-19T09:02:05.578Z,46.45
2023-01-19T09:03:06.182Z,46.57
2023-01-19T09:04:05.582Z,46.77
2023-01-19T09:05:05.597Z,46.83
2023-01-19T09:06:05.584Z,46.83
2023-01-19T09:08:05.572Z,46.60
2023-01-19T09:09:05.615Z,46.54
2023-01-19T09:10:05.625Z,45.98
2023-01-19T09:11:05.540Z,43.69
2023-01-19T09:12:05.586Z,43.69
2023-01-19T09:13:05.580Z,39.62
2023-01-19T09:14:05.577Z,39.62
2023-01-19T09:15:06.243Z,38.38
2023-01-19T09:16:05.651Z,37.95
2023-01-19T09:17:05.575Z,37.60
2023-01-19T09:19:05.597Z,36.80
2023-01-19T09:20:05.612Z,35.79
2023-01-19T09:21:05.672Z,34.62
2023-01-19T09:22:05.633Z,33.76
2023-01-19T09:23:05.631Z,33.04
2023-01-19T09:24:05.613Z,33.04
2023-01-19T09:25:05.606Z,31.09
2023-01-19T09:26:05.618Z,30.59
2023-01-19T09:27:05.610Z,29.99
2023-01-19T09:28:05.626Z,29.99
2023-01-19T09:29:05.639Z,28.47
2023-01-19T09:30:05.592Z,28.47
2023-01-19T09:31:05.761Z,27.46
2023-01-19T09:32:05.634Z,27.18
2023-01-19T09:33:05.797Z,27.18
2023-01-19T09:34:05.650Z,26.47
2023-01-19T09:35:05.656Z,26.45
2023-01-19T09:36:05.645Z,26.45
2023-01-19T09:37:05.661Z,25.97
2023-01-19T09:38:05.637Z,25.97
2023-01-19T09:39:05.744Z,26.18
2023-01-19T09:40:05.791Z,25.97
2023-01-19T09:41:05.635Z,25.97
2023-01-19T09:42:05.623Z,26.03
2023-01-19T09:43:05.675Z,26.24
2023-01-19T09:44:05.668Z,26.24
2023-01-19T09:45:05.759Z,27.04
2023-01-19T09:46:05.749Z,27.04
2023-01-19T09:47:05.721Z,26.24
2023-01-19T09:48:05.640Z,25.70
2023-01-19T09:49:05.666Z,25.57
2023-01-19T09:50:05.702Z,25.57
2023-01-19T09:51:05.708Z,24.91
2023-01-19T09:52:05.718Z,24.09
2023-01-19T09:53:05.680Z,24.09
2023-01-19T09:54:05.767Z,23.95
2023-01-19T09:55:05.682Z,23.35
2023-01-19T09:56:05.656Z,23.31
2023-01-19T09:57:05.753Z,23.11
2023-01-19T09:58:05.680Z,23.11
2023-01-19T09:59:05.724Z,22.43
2023-01-19T10:00:05.760Z,22.11
2023-01-19T10:01:05.815Z,22.11
2023-01-19T10:02:05.723Z,22.67
2023-01-19T10:03:06.697Z,22.34
2023-01-19T10:04:05.694Z,22.09
2023-01-19T10:05:05.690Z,22.09
2023-01-19T10:06:05.720Z,21.63
2023-01-19T10:07:05.741Z,21.66
2023-01-19T10:08:05.726Z,21.59
2023-01-19T10:09:05.761Z,21.59
2023-01-19T10:10:05.741Z,21.30
2023-01-19T10:11:05.747Z,21.41
2023-01-19T10:12:05.721Z,21.41
2023-01-19T10:13:05.712Z,21.59
2023-01-19T10:14:05.706Z,21.62
2023-01-19T10:15:05.762Z,22.16
2023-01-19T10:16:05.805Z,22.50
2023-01-19T10:17:05.759Z,22.50
2023-01-19T10:18:05.749Z,22.20
2023-01-19T10:19:05.750Z,22.73
2023-01-19T10:20:05.752Z,24.34
2023-01-19T10:21:05.956Z,25.06
2023-01-19T10:22:05.797Z,26.01
2023-01-19T10:23:05.741Z,26.01
2023-01-19T10:24:05.934Z,26.98
2023-01-19T10:25:05.749Z,28.51
2023-01-19T10:26:05.731Z,28.51
2023-01-19T10:27:05.811Z,30.13
2023-01-19T10:28:05.763Z,30.13
2023-01-19T10:29:05.849Z,31.03
2023-01-19T10:30:05.790Z,31.03
2023-01-19T10:31:05.903Z,31.63
2023-01-19T10:32:05.809Z,31.63
2023-01-19T10:33:05.779Z,32.06
2023-01-19T10:34:05.813Z,32.74
2023-01-19T10:35:05.821Z,32.74
2023-01-19T10:36:05.766Z,33.12
2023-01-19T10:37:05.857Z,33.68
2023-01-19T10:38:05.824Z,33.93
2023-01-19T10:39:06.187Z,34.48
2023-01-19T10:40:05.829Z,34.48
2023-01-19T10:41:05.846Z,34.57
2023-01-19T10:42:05.878Z,34.84
2023-01-19T10:43:05.824Z,34.84
2023-01-19T10:44:05.775Z,35.22
2023-01-19T10:45:05.846Z,35.14
2023-01-19T10:46:05.921Z,35.14
2023-01-19T10:47:05.861Z,35.22
2023-01-19T10:48:05.852Z,35.22
2023-01-19T10:49:05.844Z,35.27
2023-01-19T10:50:05.894Z,35.78
2023-01-19T10:51:05.850Z,35.78
2023-01-19T10:52:05.834Z,35.59
2023-01-19T10:53:06.137Z,35.70
2023-01-19T10:54:05.811Z,36.14
2023-01-19T10:55:05.832Z,36.21
2023-01-19T10:56:05.871Z,36.21
2023-01-19T10:57:05.917Z,35.79
2023-01-19T10:58:05.849Z,35.84
2023-01-19T10:59:05.860Z,36.32
2023-01-19T11:00:05.889Z,35.29
2023-01-19T11:01:06.000Z,35.29
2023-01-19T11:02:06.008Z,35.03
2023-01-19T11:03:06.282Z,35.51
2023-01-19T11:04:05.938Z,36.15
2023-01-19T11:05:05.823Z,36.15
2023-01-19T11:06:05.838Z,36.73
2023-01-19T11:07:05.862Z,36.73
2023-01-19T11:08:05.924Z,37.31
2023-01-19T11:09:05.870Z,37.31
2023-01-19T11:10:05.886Z,36.74
2023-01-19T11:11:05.935Z,37.26
2023-01-19T11:12:05.885Z,36.41
2023-01-19T11:13:05.924Z,37.07
2023-01-19T11:14:05.886Z,37.07
2023-01-19T11:15:05.855Z,36.66
2023-01-19T11:16:05.938Z,37.05
2023-01-19T11:17:05.899Z,37.05
2023-01-19T11:18:06.003Z,36.50
2023-01-19T11:19:05.892Z,36.69
2023-01-19T11:20:05.864Z,36.69
2023-01-19T11:21:05.872Z,37.13
2023-01-19T11:22:05.909Z,36.40
2023-01-19T11:23:05.917Z,36.67
2023-01-19T11:24:05.915Z,36.60
2023-01-19T11:25:05.908Z,36.60
2023-01-19T11:26:05.900Z,36.99
2023-01-19T11:27:05.963Z,36.83
2023-01-19T11:28:05.883Z,36.30
2023-01-19T11:29:05.978Z,36.56
2023-01-19T11:30:05.911Z,36.56
2023-01-19T11:32:06.005Z,36.44
2023-01-19T11:33:05.949Z,36.44
2023-01-19T11:34:05.972Z,37.34
2023-01-19T11:35:05.931Z,37.34
2023-01-19T11:36:05.936Z,37.30
2023-01-19T11:37:06.015Z,36.72
2023-01-19T11:38:05.944Z,36.72
2023-01-19T11:39:05.956Z,37.83
2023-01-19T11:40:05.925Z,36.94
2023-01-19T11:41:05.962Z,36.94
2023-01-19T11:42:05.970Z,37.49
2023-01-19T11:43:05.903Z,37.65
2023-01-19T11:44:05.919Z,37.63
2023-01-19T11:45:05.955Z,37.87
2023-01-19T11:46:06.005Z,37.80
2023-01-19T11:47:05.959Z,37.80
2023-01-19T11:48:05.987Z,37.70
2023-01-19T11:49:05.959Z,37.33
2023-01-19T11:50:06.005Z,37.51
2023-01-19T11:51:05.976Z,37.74
2023-01-19T11:52:05.985Z,37.74
2023-01-19T11:53:06.317Z,38.44
2023-01-19T11:54:05.958Z,38.36
2023-01-19T11:55:05.959Z,38.72
2023-01-19T11:56:05.989Z,38.72
2023-01-19T11:57:05.969Z,38.20
2023-01-19T11:58:06.073Z,38.00
2023-01-19T11:59:05.969Z,38.00
2023-01-19T12:00:05.951Z,37.62
2023-01-19T12:01:06.003Z,37.90
2023-01-19T12:02:06.058Z,38.14
2023-01-19T12:03:06.075Z,38.52
2023-01-19T12:04:05.964Z,38.52
2023-01-19T12:05:06.048Z,38.18
2023-01-19T12:06:06.016Z,37.98
2023-01-19T12:07:05.977Z,38.15
2023-01-19T12:08:07.004Z,38.33
2023-01-19T12:09:05.999Z,38.35
2023-01-19T12:10:06.021Z,38.35
2023-01-19T12:11:06.448Z,38.37
2023-01-19T12:12:05.982Z,38.37
2023-01-19T12:13:06.004Z,38.23
2023-01-19T12:14:06.001Z,38.23
2023-01-19T12:15:06.036Z,38.29
2023-01-19T12:16:06.088Z,38.24
2023-01-19T12:17:06.088Z,38.46
2023-01-19T12:18:06.036Z,38.99
2023-01-19T12:19:06.089Z,39.01
2023-01-19T12:20:06.046Z,39.01
2023-01-19T12:21:06.006Z,39.33
2023-01-19T12:22:05.993Z,39.33
2023-01-19T12:23:06.685Z,39.13
2023-01-19T12:24:06.111Z,39.49
2023-01-19T12:25:06.066Z,39.49
2023-01-19T12:26:06.054Z,39.15
2023-01-19T12:27:06.068Z,39.11
2023-01-19T12:28:06.072Z,38.84
2023-01-19T12:29:06.515Z,38.88
2023-01-19T12:30:06.047Z,38.88
2023-01-19T12:31:06.122Z,39.17
2023-01-19T12:32:06.113Z,39.13
2023-01-19T12:33:06.034Z,39.13
2023-01-19T12:34:06.053Z,39.46
2023-01-19T12:35:06.191Z,39.15
2023-01-19T12:36:06.056Z,39.15
2023-01-19T12:37:06.119Z,39.26
2023-01-19T12:38:06.079Z,39.26
2023-01-19T12:39:06.095Z,38.39
2023-01-19T12:40:06.135Z,38.74
2023-01-19T12:41:06.091Z,38.76
2023-01-19T12:42:06.055Z,38.76
2023-01-19T12:43:06.078Z,38.79
2023-01-19T12:45:06.106Z,38.93
2023-01-19T12:47:06.098Z,38.65
2023-01-19T12:49:06.116Z,38.29
2023-01-19T12:50:06.131Z,38.73
2023-01-19T12:51:06.093Z,38.73
2023-01-19T12:52:06.076Z,38.17
2023-01-19T12:53:06.241Z,38.50
2023-01-19T12:54:06.691Z,38.75
2023-01-19T12:55:06.093Z,38.88
2023-01-19T12:56:06.108Z,38.93
2023-01-19T12:57:06.121Z,38.77
2023-01-19T12:58:06.156Z,38.55
2023-01-19T12:59:06.192Z,38.55
2023-01-19T13:00:06.092Z,38.61
2023-01-19T13:01:06.236Z,38.30
2023-01-19T13:02:06.201Z,38.76
2023-01-19T13:03:06.153Z,38.82
2023-01-19T13:04:06.631Z,38.88
2023-01-19T13:05:06.163Z,38.88
2023-01-19T13:06:06.205Z,38.61
2023-01-19T13:07:06.153Z,38.61
2023-01-19T13:08:06.188Z,39.01
2023-01-19T13:09:06.182Z,39.35
2023-01-19T13:10:06.126Z,39.68
2023-01-19T13:11:06.255Z,39.90
2023-01-19T13:12:06.183Z,39.90
2023-01-19T13:13:06.165Z,39.48
2023-01-19T13:14:06.144Z,39.90
2023-01-19T13:15:06.126Z,39.75
2023-01-19T13:16:06.247Z,39.88
2023-01-19T13:17:06.569Z,39.94
2023-01-19T13:18:06.200Z,39.93
2023-01-19T13:19:06.180Z,39.73
2023-01-19T13:20:06.228Z,39.62
2023-01-19T13:21:06.147Z,39.62
2023-01-19T13:22:06.223Z,39.48
2023-01-19T13:23:06.209Z,39.48
2023-01-19T13:26:06.147Z,38.46
2023-01-19T13:27:06.193Z,38.51
2023-01-19T13:28:06.163Z,38.41
2023-01-19T13:29:06.179Z,38.26
2023-01-19T13:30:06.203Z,38.31
2023-01-19T13:31:06.296Z,38.46
2023-01-19T13:33:06.225Z,38.82
2023-01-19T13:34:06.249Z,38.46
2023-01-19T13:35:06.197Z,38.69
2023-01-19T13:36:06.228Z,38.97
2023-01-19T13:37:06.253Z,38.36
2023-01-19T13:38:06.238Z,38.92
2023-01-19T13:39:06.210Z,39.78
2023-01-19T13:40:06.249Z,39.78
2023-01-19T13:41:06.228Z,39.76
2023-01-19T13:42:06.227Z,39.78
2023-01-19T13:43:06.263Z,40.44
2023-01-19T13:44:06.247Z,40.44
2023-01-19T13:45:06.280Z,40.33
2023-01-19T13:46:06.488Z,40.16
2023-01-19T13:47:06.250Z,40.16
2023-01-19T13:48:06.260Z,40.27
2023-01-19T13:49:06.259Z,40.27
2023-01-19T13:50:06.255Z,39.73
2023-01-19T13:51:06.239Z,39.65
2023-01-19T13:53:06.271Z,40.88
2023-01-19T13:54:06.276Z,40.88
2023-01-19T13:55:06.647Z,41.24
2023-01-19T13:56:06.281Z,40.84
2023-01-19T13:57:06.249Z,40.43
2023-01-19T13:58:06.333Z,40.55
2023-01-19T13:59:06.294Z,40.42
2023-01-19T14:00:06.326Z,40.46
2023-01-19T14:01:06.396Z,40.38
2023-01-19T14:02:06.344Z,40.38
2023-01-19T14:03:06.387Z,39.64
2023-01-19T14:04:06.414Z,39.60
2023-01-19T14:05:06.299Z,39.60
2023-01-19T14:06:06.339Z,40.09
2023-01-19T14:07:06.519Z,40.41
2023-01-19T14:08:06.360Z,40.09
2023-01-19T14:10:06.520Z,40.42
2023-01-19T14:11:06.281Z,40.76
2023-01-19T14:12:06.291Z,40.76
2023-01-19T14:13:06.348Z,40.24
2023-01-19T14:14:06.314Z,40.24